Time;durP1;ratioP1;P1;durP2;ratioP2;P2;SDS_P1;SDS_P2;PMS_P1;PMS_P2;Temp;Humidity;BMP_temperature;BMP_pressure;BME280_temperature;BME280_humidity;BME280_pressure;Samples;Min_cycle;Max_cycle;Signal;HPM_P1;HPM_P2
2022/08/20 00:01:46;;;;;;;2.05;1.05;;;15.60;99.90;;;;;;5095621;28;20028;-72
2022/08/20 00:04:13;;;;;;;2.90;1.17;;;15.60;99.90;;;;;;5095943;28;20035;-72
2022/08/20 00:06:39;;;;;;;2.63;1.38;;;15.60;99.90;;;;;;5095807;28;20092;-72
2022/08/20 00:09:06;;;;;;;2.60;1.60;;;15.60;99.90;;;;;;5095466;28;20077;-71
2022/08/20 00:11:32;;;;;;;1.95;1.20;;;15.50;99.90;;;;;;5095544;28;20020;-72
2022/08/20 00:14:01;;;;;;;2.28;1.10;;;15.50;99.90;;;;;;5095780;28;20024;-72
2022/08/20 00:16:32;;;;;;;2.20;0.90;;;15.50;99.90;;;;;;5095692;28;20051;-72
2022/08/20 00:19:02;;;;;;;3.08;1.00;;;15.50;99.90;;;;;;5095681;28;20035;-72
2022/08/20 00:21:28;;;;;;;1.73;1.00;;;15.40;99.90;;;;;;5095267;28;20038;-71
2022/08/20 00:23:55;;;;;;;1.90;0.90;;;15.40;99.90;;;;;;5094376;28;20262;-71
2022/08/20 00:26:21;;;;;;;3.75;1.00;;;15.40;99.90;;;;;;5095471;28;20095;-71
2022/08/20 00:28:47;;;;;;;2.13;1.10;;;15.40;99.90;;;;;;5095117;28;20027;-71
2022/08/20 00:31:18;;;;;;;1.58;0.98;;;15.40;99.90;;;;;;5095046;28;20028;-71
2022/08/20 00:33:46;;;;;;;2.15;1.00;;;15.40;99.90;;;;;;5095461;28;20016;-71
2022/08/20 00:36:14;;;;;;;2.80;1.00;;;15.40;99.90;;;;;;5095381;28;20024;-71
2022/08/20 00:38:42;;;;;;;1.17;0.80;;;15.30;99.90;;;;;;5095033;28;20032;-71
2022/08/20 00:41:11;;;;;;;2.05;0.98;;;15.40;99.90;;;;;;5094932;28;20056;-71
2022/08/20 00:43:38;;;;;;;1.17;0.80;;;15.30;99.90;;;;;;5094876;28;20020;-71
2022/08/20 00:46:11;;;;;;;1.95;0.95;;;15.30;99.90;;;;;;5094880;28;20020;-71
2022/08/20 00:48:42;;;;;;;4.18;1.40;;;15.30;99.90;;;;;;5095038;28;20028;-72
2022/08/20 00:51:20;;;;;;;;;;;15.30;99.90;;;;;;5095224;28;20090;-72
2022/08/20 00:53:46;;;;;;;2.30;0.90;;;15.30;99.90;;;;;;5093222;28;19904;-71
2022/08/20 00:56:12;;;;;;;1.58;0.90;;;15.30;99.90;;;;;;5094963;28;20024;-71
2022/08/20 00:58:40;;;;;;;1.85;0.88;;;15.30;99.90;;;;;;5094486;28;20066;-71
2022/08/20 01:01:08;;;;;;;1.88;0.90;;;15.30;99.90;;;;;;5093685;28;20024;-71
2022/08/20 01:03:34;;;;;;;1.40;0.90;;;15.30;99.90;;;;;;5094818;28;20047;-71
2022/08/20 01:06:00;;;;;;;1.90;0.98;;;15.30;99.90;;;;;;5094443;28;20036;-71
2022/08/20 01:08:26;;;;;;;2.17;1.08;;;15.30;99.90;;;;;;5094508;28;20039;-71
2022/08/20 01:11:06;;;;;;;1.95;1.20;;;15.30;99.90;;;;;;5094256;28;20487;-71
2022/08/20 01:13:34;;;;;;;1.95;1.08;;;15.40;99.90;;;;;;5094686;28;20027;-70
2022/08/20 01:16:02;;;;;;;2.90;1.55;;;15.40;99.90;;;;;;5094258;28;20016;-71
2022/08/20 01:18:30;;;;;;;2.10;1.10;;;15.40;99.90;;;;;;5094249;28;20024;-71
2022/08/20 01:21:00;;;;;;;1.70;1.00;;;15.40;99.90;;;;;;5092902;28;20032;-71
2022/08/20 01:23:40;;;;;;;1.73;1.00;;;15.40;99.90;;;;;;5094521;28;20414;-71
2022/08/20 01:26:40;;;;;;;2.70;1.05;;;15.40;99.90;;;;;;5094199;28;20028;-71
2022/08/20 01:29:21;;;;;;;2.20;1.00;;;15.40;99.90;;;;;;5092610;28;20028;-71
2022/08/20 01:31:47;;;;;;;2.28;0.90;;;15.40;99.90;;;;;;5093958;28;20511;-71
2022/08/20 01:34:15;;;;;;;2.08;1.25;;;15.40;99.90;;;;;;5092868;28;20032;-71
2022/08/20 01:36:51;;;;;;;1.60;0.90;;;15.40;99.90;;;;;;5094465;28;20456;-72
2022/08/20 01:39:21;;;;;;;1.83;1.13;;;15.40;99.90;;;;;;5094173;28;20468;-71
2022/08/20 01:42:31;;;;;;;1.15;0.80;;;15.40;99.90;;;;;;5094146;28;20024;-71
2022/08/20 01:44:57;;;;;;;1.50;0.93;;;15.30;99.90;;;;;;5090364;28;20040;-72
2022/08/20 01:47:32;;;;;;;1.50;1.00;;;15.30;99.90;;;;;;5093681;28;20043;-72
2022/08/20 01:50:04;;;;;;;2.40;0.90;;;15.30;99.90;;;;;;5093869;28;20495;-71
2022/08/20 01:52:45;;;;;;;1.70;0.95;;;15.30;99.90;;;;;;5093165;28;20067;-70
2022/08/20 01:55:11;;;;;;;3.53;1.00;;;15.20;99.90;;;;;;5093825;28;20031;-71
2022/08/20 01:57:38;;;;;;;1.90;1.10;;;15.20;99.90;;;;;;5094218;28;20468;-71
2022/08/20 02:00:11;;;;;;;2.03;1.05;;;15.20;99.90;;;;;;5092368;28;20065;-71
2022/08/20 02:02:38;;;;;;;1.90;1.10;;;15.20;99.90;;;;;;5093410;28;20066;-70
2022/08/20 02:05:04;;;;;;;1.52;1.00;;;15.20;99.90;;;;;;5093853;28;20548;-71
2022/08/20 02:07:31;;;;;;;1.80;1.10;;;15.20;99.90;;;;;;5093316;28;20115;-72
2022/08/20 02:09:58;;;;;;;1.98;1.05;;;15.20;99.90;;;;;;5093810;28;20020;-70
2022/08/20 02:12:23;;;;;;;1.80;1.17;;;15.10;99.90;;;;;;5092179;28;20028;-71
2022/08/20 02:14:52;;;;;;;1.58;1.00;;;15.10;99.90;;;;;;5093486;28;20111;-72
2022/08/20 02:17:22;;;;;;;2.38;1.40;;;15.10;99.90;;;;;;5093707;28;20012;-70
2022/08/20 02:20:00;;;;;;;1.65;1.17;;;15.10;99.90;;;;;;5093737;28;20035;-70
2022/08/20 02:22:59;;;;;;;2.88;1.40;;;15.10;99.90;;;;;;5093701;28;20020;-70
2022/08/20 02:25:29;;;;;;;2.28;1.42;;;15.10;99.90;;;;;;5092092;28;20119;-72
2022/08/20 02:27:56;;;;;;;2.38;1.40;;;15.00;99.90;;;;;;5093913;28;20047;-70
2022/08/20 02:30:34;;;;;;;2.03;1.50;;;15.00;99.90;;;;;;5093330;28;20379;-71
2022/08/20 02:33:03;;;;;;;3.38;1.70;;;15.00;99.90;;;;;;5093392;28;20020;-72
2022/08/20 02:35:30;;;;;;;2.70;1.90;;;15.00;99.90;;;;;;5093287;28;20044;-70
2022/08/20 02:37:55;;;;;;;3.05;1.60;;;15.00;99.90;;;;;;5093339;28;20039;-71
2022/08/20 02:40:25;;;;;;;3.03;1.90;;;15.00;99.90;;;;;;5093221;28;20024;-70
2022/08/20 02:42:51;;;;;;;3.72;2.05;;;15.00;99.90;;;;;;5093159;28;20024;-71
2022/08/20 02:45:18;;;;;;;4.22;2.00;;;14.90;99.90;;;;;;5093473;28;20441;-72
2022/08/20 02:47:45;;;;;;;3.15;2.17;;;15.00;99.90;;;;;;5091930;28;20035;-73
2022/08/20 02:50:14;;;;;;;3.35;2.25;;;14.90;99.90;;;;;;5093154;28;20024;-72
2022/08/20 02:52:40;;;;;;;4.65;2.30;;;14.90;99.90;;;;;;5093060;28;20103;-70
2022/08/20 02:55:07;;;;;;;3.30;2.03;;;14.90;99.90;;;;;;5092224;28;20020;-72
2022/08/20 02:57:33;;;;;;;3.65;2.22;;;14.90;99.90;;;;;;5093060;28;20035;-71
2022/08/20 02:59:59;;;;;;;3.20;2.10;;;14.90;99.90;;;;;;5093325;28;20032;-71
2022/08/20 03:02:24;;;;;;;2.90;2.00;;;14.90;99.90;;;;;;5092974;28;20020;-71
2022/08/20 03:04:50;;;;;;;3.28;2.35;;;14.90;99.90;;;;;;5093289;28;20028;-69
2022/08/20 03:07:16;;;;;;;3.97;2.40;;;14.90;99.90;;;;;;5092855;28;20425;-72
2022/08/20 03:09:42;;;;;;;3.30;2.50;;;14.90;99.90;;;;;;5093517;28;20026;-70
2022/08/20 03:12:08;;;;;;;4.32;2.28;;;14.90;99.90;;;;;;5091812;28;20020;-69
2022/08/20 03:14:35;;;;;;;2.85;2.22;;;14.90;99.90;;;;;;5093230;28;20028;-71
2022/08/20 03:17:01;;;;;;;4.05;2.78;;;14.90;99.90;;;;;;5097181;28;20020;-70
2022/08/20 03:19:27;;;;;;;3.53;2.53;;;14.90;99.90;;;;;;5096541;28;20077;-70
2022/08/20 03:21:52;;;;;;;3.80;2.95;;;14.80;99.90;;;;;;5095296;28;20392;-71
2022/08/20 03:24:18;;;;;;;3.35;2.72;;;14.80;99.90;;;;;;5096441;28;20031;-71
2022/08/20 03:26:44;;;;;;;4.68;2.63;;;14.80;99.90;;;;;;5096431;28;20537;-69
2022/08/20 03:29:10;;;;;;;3.67;2.70;;;14.80;99.90;;;;;;5096547;28;20039;-70
2022/08/20 03:31:36;;;;;;;3.55;2.90;;;14.70;99.90;;;;;;5096276;28;20020;-70
2022/08/20 03:34:02;;;;;;;4.53;3.22;;;14.70;99.90;;;;;;5096278;28;20428;-70
2022/08/20 03:36:29;;;;;;;4.00;2.83;;;14.70;99.90;;;;;;5095247;28;20047;-70
2022/08/20 03:38:56;;;;;;;3.85;3.38;;;14.70;99.90;;;;;;5096211;28;20028;-71
2022/08/20 03:41:23;;;;;;;3.97;2.83;;;14.70;99.90;;;;;;5096051;28;20026;-71
2022/08/20 03:43:48;;;;;;;3.50;2.65;;;14.70;99.90;;;;;;5096620;28;20372;-70
2022/08/20 03:46:14;;;;;;;5.72;3.00;;;14.70;99.90;;;;;;5096316;28;20030;-71
2022/08/20 03:48:40;;;;;;;3.45;2.58;;;14.70;99.90;;;;;;5096181;28;20353;-70
2022/08/20 03:51:06;;;;;;;3.60;2.67;;;14.80;99.90;;;;;;5095907;28;20028;-70
2022/08/20 03:53:32;;;;;;;3.67;2.85;;;14.80;99.90;;;;;;5094651;28;20438;-70
2022/08/20 03:56:00;;;;;;;3.35;2.38;;;14.80;99.90;;;;;;5096140;28;20056;-71
2022/08/20 03:58:30;;;;;;;4.50;3.08;;;14.80;99.90;;;;;;5096118;28;20103;-71
2022/08/20 04:00:56;;;;;;;3.42;2.55;;;14.80;99.90;;;;;;5095773;28;20047;-70
2022/08/20 04:03:22;;;;;;;4.35;2.63;;;14.90;99.90;;;;;;5094436;28;20471;-70
2022/08/20 04:05:49;;;;;;;3.17;2.60;;;14.90;99.90;;;;;;5095752;28;20052;-70
2022/08/20 04:08:19;;;;;;;5.05;3.05;;;14.80;99.90;;;;;;5094417;28;20066;-71
2022/08/20 04:10:47;;;;;;;3.50;2.63;;;14.80;99.90;;;;;;5094358;28;20055;-70
2022/08/20 04:13:14;;;;;;;3.47;2.72;;;14.80;99.90;;;;;;5095524;28;20016;-70
2022/08/20 04:15:41;;;;;;;4.03;2.63;;;14.80;99.90;;;;;;5095647;28;20024;-71
2022/08/20 04:18:08;;;;;;;4.28;2.90;;;14.80;99.90;;;;;;5095707;28;20024;-71
2022/08/20 04:20:36;;;;;;;3.45;2.50;;;14.80;99.90;;;;;;5095419;28;20039;-72
2022/08/20 04:23:03;;;;;;;3.58;2.70;;;14.80;99.90;;;;;;5095607;28;20028;-72
2022/08/20 04:25:30;;;;;;;4.13;2.35;;;14.80;99.90;;;;;;5095516;28;20032;-71
2022/08/20 04:28:02;;;;;;;3.55;2.38;;;14.80;99.90;;;;;;5095154;28;20035;-71
2022/08/20 04:30:28;;;;;;;3.53;2.70;;;14.80;99.90;;;;;;5095612;28;20469;-72
2022/08/20 04:32:54;;;;;;;3.70;2.75;;;14.80;99.90;;;;;;5095050;28;20036;-71
2022/08/20 04:35:23;;;;;;;3.95;2.80;;;14.80;99.90;;;;;;5095372;28;20056;-71
2022/08/20 04:37:55;;;;;;;3.78;2.60;;;14.80;99.90;;;;;;5095280;28;20059;-70
2022/08/20 04:43:06;;;;;;;3.85;2.50;;;14.80;99.90;;;;;;5095509;28;20105;-71
2022/08/20 04:45:32;;;;;;;4.90;2.95;;;14.80;99.90;;;;;;5094894;28;20472;-71
2022/08/20 04:48:04;;;;;;;7.50;3.33;;;14.90;99.90;;;;;;5095036;28;20050;-71
2022/08/20 04:50:34;;;;;;;3.72;2.72;;;14.90;99.90;;;;;;5095113;28;20095;-71
2022/08/20 04:53:01;;;;;;;6.47;2.80;;;14.90;99.90;;;;;;5093664;28;20036;-70
2022/08/20 04:55:28;;;;;;;3.47;2.70;;;14.90;99.90;;;;;;5094744;28;20032;-72
2022/08/20 04:57:56;;;;;;;4.68;2.90;;;14.80;99.90;;;;;;5095251;28;20372;-70
2022/08/20 05:00:22;;;;;;;3.30;2.55;;;14.80;99.90;;;;;;5094589;28;20094;-71
2022/08/20 05:02:48;;;;;;;4.20;2.97;;;14.80;99.90;;;;;;5094473;28;20032;-70
2022/08/20 05:05:14;;;;;;;3.85;2.70;;;14.80;99.90;;;;;;5094803;28;20024;-71
2022/08/20 05:07:47;;;;;;;3.83;2.75;;;14.80;99.90;;;;;;5094281;28;20032;-70
2022/08/20 05:10:15;;;;;;;4.40;2.50;;;14.90;99.90;;;;;;5094730;28;20028;-71
2022/08/20 05:12:42;;;;;;;4.53;2.95;;;14.90;99.90;;;;;;5093257;28;20031;-71
2022/08/20 05:15:11;;;;;;;4.45;2.92;;;14.90;99.90;;;;;;5093174;28;20035;-71
2022/08/20 05:17:43;;;;;;;3.13;2.55;;;14.90;99.90;;;;;;5094586;28;20024;-71
2022/08/20 05:20:17;;;;;;;4.28;2.72;;;14.90;99.90;;;;;;5094890;28;20028;-72
2022/08/20 05:22:42;;;;;;;3.20;2.45;;;14.90;99.90;;;;;;5094464;28;20045;-72
2022/08/20 05:25:09;;;;;;;3.55;2.72;;;14.90;99.90;;;;;;5094709;28;20107;-73
2022/08/20 05:27:35;;;;;;;3.83;2.58;;;14.90;99.90;;;;;;5094583;28;20023;-72
2022/08/20 05:30:06;;;;;;;3.15;2.25;;;14.90;99.90;;;;;;5094097;28;20025;-72
2022/08/20 05:32:34;;;;;;;3.97;3.08;;;14.90;99.90;;;;;;5094027;28;20076;-72
2022/08/20 05:35:00;;;;;;;3.75;2.60;;;15.00;99.90;;;;;;5093993;28;20523;-71
2022/08/20 05:37:26;;;;;;;3.97;3.08;;;15.00;99.90;;;;;;5093966;28;20553;-71
2022/08/20 05:39:52;;;;;;;3.45;2.30;;;15.10;99.90;;;;;;5093849;28;20024;-71
2022/08/20 05:42:18;;;;;;;3.45;2.47;;;15.10;99.90;;;;;;5092616;28;20085;-71
2022/08/20 05:44:45;;;;;;;4.30;2.70;;;15.10;99.90;;;;;;5094054;28;20024;-71
2022/08/20 05:47:11;;;;;;;3.85;2.55;;;15.10;99.90;;;;;;5093849;28;20016;-71
2022/08/20 05:49:37;;;;;;;3.92;2.35;;;15.10;99.90;;;;;;5093865;28;19912;-71
2022/08/20 05:52:04;;;;;;;4.60;2.78;;;15.10;99.90;;;;;;5093702;28;20475;-70
2022/08/20 05:54:30;;;;;;;6.72;3.03;;;15.20;99.90;;;;;;5093776;28;20020;-71
2022/08/20 05:56:56;;;;;;;2.70;2.20;;;15.20;99.90;;;;;;5093697;28;20020;-71
2022/08/20 05:59:26;;;;;;;4.47;2.35;;;15.20;99.90;;;;;;5093658;28;20028;-71
2022/08/20 06:01:52;;;;;;;3.13;2.20;;;15.30;99.90;;;;;;5093573;28;20028;-71
2022/08/20 06:04:23;;;;;;;3.08;2.25;;;15.30;99.90;;;;;;5093616;28;20039;-71
2022/08/20 06:06:51;;;;;;;4.97;2.67;;;15.40;99.90;;;;;;5093510;28;20081;-71
2022/08/20 06:09:20;;;;;;;3.70;2.65;;;15.40;99.90;;;;;;5093779;28;20038;-71
2022/08/20 06:11:46;;;;;;;4.05;2.97;;;15.40;99.90;;;;;;5093678;28;20024;-71
2022/08/20 06:14:11;;;;;;;4.57;2.88;;;15.40;99.90;;;;;;5093460;28;20032;-71
2022/08/20 06:16:37;;;;;;;5.30;2.92;;;15.50;99.90;;;;;;5093762;28;20057;-71
2022/08/20 06:19:04;;;;;;;3.47;2.40;;;15.40;99.90;;;;;;5093737;28;20024;-71
2022/08/20 06:21:30;;;;;;;3.30;2.33;;;15.40;99.90;;;;;;5093347;28;20039;-71
2022/08/20 06:23:55;;;;;;;4.55;2.90;;;15.40;99.90;;;;;;5093449;28;20028;-71
2022/08/20 06:26:22;;;;;;;3.35;2.60;;;15.40;99.90;;;;;;5093381;28;20055;-72
2022/08/20 06:28:48;;;;;;;3.38;2.47;;;15.40;99.90;;;;;;5093317;28;20028;-71
2022/08/20 06:31:14;;;;;;;3.08;2.10;;;15.40;99.90;;;;;;5093520;28;20025;-71
2022/08/20 06:33:39;;;;;;;3.88;2.55;;;15.40;99.90;;;;;;5092068;28;20028;-71
2022/08/20 06:36:05;;;;;;;3.70;2.30;;;15.40;99.90;;;;;;5093325;28;20024;-71
2022/08/20 06:38:31;;;;;;;3.58;2.40;;;15.50;99.90;;;;;;5093591;28;20031;-71
2022/08/20 06:40:58;;;;;;;4.22;2.20;;;15.50;99.90;;;;;;5093191;28;20028;-71
2022/08/20 06:43:24;;;;;;;3.10;2.17;;;15.50;99.90;;;;;;5093494;28;20056;-71
2022/08/20 06:45:50;;;;;;;2.80;2.00;;;15.50;99.90;;;;;;5092011;28;20032;-72
2022/08/20 06:48:16;;;;;;;2.78;2.03;;;15.60;99.90;;;;;;5075193;28;20122;-72
2022/08/20 06:50:46;;;;;;;3.42;2.50;;;15.60;99.90;;;;;;5095840;28;20020;-72
2022/08/20 06:53:15;;;;;;;3.20;2.33;;;15.60;99.90;;;;;;5097556;28;20035;-71
2022/08/20 06:55:44;;;;;;;3.28;2.33;;;15.60;99.90;;;;;;5097037;28;20130;-71
2022/08/20 06:58:11;;;;;;;2.97;2.25;;;15.60;99.90;;;;;;5096972;28;20502;-71
2022/08/20 07:00:39;;;;;;;4.57;2.58;;;15.60;99.90;;;;;;5096885;28;20032;-71
2022/08/20 07:03:05;;;;;;;4.05;2.58;;;15.60;99.90;;;;;;5096923;28;20025;-71
2022/08/20 07:05:36;;;;;;;2.33;1.88;;;15.70;99.90;;;;;;5097186;28;20036;-71
2022/08/20 07:08:03;;;;;;;3.45;2.05;;;15.70;99.90;;;;;;5095380;28;20032;-71
2022/08/20 07:10:29;;;;;;;3.40;2.28;;;15.70;99.90;;;;;;5096718;28;20379;-71
2022/08/20 07:12:55;;;;;;;3.00;2.22;;;15.70;99.90;;;;;;5096949;28;20016;-71
2022/08/20 07:15:24;;;;;;;3.33;2.40;;;15.70;99.90;;;;;;5096686;28;20103;-71
2022/08/20 07:17:52;;;;;;;3.58;2.50;;;15.80;99.90;;;;;;5096886;28;20028;-71
2022/08/20 07:20:19;;;;;;;2.85;2.15;;;15.80;99.90;;;;;;5096895;28;20024;-71
2022/08/20 07:22:46;;;;;;;4.20;2.78;;;15.80;99.90;;;;;;5096469;28;20077;-71
2022/08/20 07:25:14;;;;;;;3.38;2.45;;;15.80;99.90;;;;;;5096757;28;20034;-71
2022/08/20 07:27:40;;;;;;;2.70;2.00;;;15.80;99.90;;;;;;5096374;28;20024;-71
2022/08/20 07:32:54;;;;;;;2.85;2.13;;;15.80;99.90;;;;;;5096563;28;20034;-72
2022/08/20 07:35:20;;;;;;;2.65;2.10;;;15.80;99.90;;;;;;5096556;28;20019;-72
2022/08/20 07:37:48;;;;;;;3.75;2.40;;;15.80;99.90;;;;;;5096503;28;20082;-72
2022/08/20 07:40:27;;;;;;;2.95;2.30;;;15.80;99.90;;;;;;5096544;28;20020;-73
2022/08/20 07:42:54;;;;;;;4.28;2.10;;;15.80;99.90;;;;;;5096114;28;20024;-73
2022/08/20 07:45:20;;;;;;;3.53;2.15;;;15.90;99.90;;;;;;5096394;28;20053;-72
2022/08/20 07:47:46;;;;;;;3.83;2.45;;;15.90;99.90;;;;;;5096061;28;20032;-72
2022/08/20 07:50:15;;;;;;;3.05;2.20;;;15.90;99.90;;;;;;5096080;28;20028;-72
2022/08/20 07:52:41;;;;;;;3.92;2.38;;;15.90;99.90;;;;;;5095942;28;20024;-72
2022/08/20 07:55:10;;;;;;;6.45;4.22;;;15.90;99.90;;;;;;5095968;28;20165;-72
2022/08/20 07:57:37;;;;;;;6.50;5.15;;;15.90;99.90;;;;;;5094610;28;20020;-72
2022/08/20 08:00:06;;;;;;;6.40;5.07;;;15.90;99.90;;;;;;5095881;28;20073;-72
2022/08/20 08:02:32;;;;;;;5.60;4.50;;;15.90;99.90;;;;;;5095355;28;20101;-72
2022/08/20 08:04:58;;;;;;;3.88;3.10;;;15.90;99.90;;;;;;5095998;28;20025;-72
2022/08/20 08:07:25;;;;;;;5.10;3.00;;;16.00;99.90;;;;;;5095415;28;20032;-72
2022/08/20 08:09:52;;;;;;;4.78;2.90;;;15.90;99.90;;;;;;5095650;28;20498;-72
2022/08/20 08:12:17;;;;;;;3.42;2.47;;;15.90;99.90;;;;;;5095825;28;20024;-72
2022/08/20 08:14:45;;;;;;;4.07;2.65;;;15.90;99.90;;;;;;5094383;28;20357;-72
2022/08/20 08:17:11;;;;;;;3.47;2.22;;;15.90;99.90;;;;;;5095517;28;20536;-72
2022/08/20 08:19:41;;;;;;;3.70;2.63;;;15.90;99.90;;;;;;5095415;28;20399;-73
2022/08/20 08:22:11;;;;;;;2.90;2.17;;;15.90;99.90;;;;;;5095701;28;20028;-72
2022/08/20 08:24:38;;;;;;;3.65;2.63;;;15.90;99.90;;;;;;5095828;28;20549;-72
2022/08/20 08:27:03;;;;;;;3.17;2.17;;;15.90;99.90;;;;;;5093993;28;20055;-72
2022/08/20 08:29:29;;;;;;;3.67;2.28;;;15.90;99.90;;;;;;5095174;28;20060;-72
2022/08/20 08:31:55;;;;;;;3.65;2.40;;;16.00;99.90;;;;;;5095422;28;20035;-72
2022/08/20 08:34:25;;;;;;;3.13;2.33;;;16.10;99.90;;;;;;5095437;28;20012;-72
2022/08/20 08:36:51;;;;;;;3.58;2.40;;;16.10;99.90;;;;;;5095375;28;20020;-72
2022/08/20 08:39:18;;;;;;;3.65;2.17;;;16.10;99.90;;;;;;5095390;28;20051;-72
2022/08/20 08:41:48;;;;;;;3.55;2.45;;;16.20;99.90;;;;;;5095240;28;20020;-71
2022/08/20 08:44:21;;;;;;;3.53;2.37;;;16.20;99.90;;;;;;5095256;28;20034;-71
2022/08/20 08:46:55;;;;;;;3.03;1.95;;;16.20;99.90;;;;;;5094922;28;20266;-71
2022/08/20 08:49:24;;;;;;;3.88;2.53;;;16.20;99.90;;;;;;5095365;28;20055;-71
2022/08/20 08:52:03;;;;;;;3.60;2.30;;;16.20;99.90;;;;;;5094719;28;20039;-71
2022/08/20 08:54:30;;;;;;;3.97;2.60;;;16.20;99.90;;;;;;5095029;28;20026;-71
2022/08/20 08:56:57;;;;;;;3.45;2.40;;;16.20;99.90;;;;;;5094711;28;20061;-71
2022/08/20 08:59:23;;;;;;;3.05;2.03;;;16.20;99.90;;;;;;5092027;28;20438;-71
2022/08/20 09:01:52;;;;;;;2.88;1.90;;;16.20;99.90;;;;;;5094401;28;20490;-71
2022/08/20 09:04:23;;;;;;;3.35;2.15;;;16.10;99.90;;;;;;5094376;28;20028;-71
2022/08/20 09:06:53;;;;;;;4.03;2.28;;;16.20;99.90;;;;;;5094436;28;20369;-71
2022/08/20 09:09:32;;;;;;;3.70;2.08;;;16.20;99.90;;;;;;5094690;28;20032;-71
2022/08/20 09:12:05;;;;;;;3.22;2.20;;;16.20;99.90;;;;;;5093017;28;20020;-71
2022/08/20 09:14:31;;;;;;;3.05;2.00;;;16.20;99.90;;;;;;5092642;28;20031;-71
2022/08/20 09:16:57;;;;;;;3.20;2.03;;;16.30;99.90;;;;;;5094320;28;20024;-71
2022/08/20 09:19:23;;;;;;;3.00;2.08;;;16.30;99.90;;;;;;5094267;28;20396;-71
2022/08/20 09:21:48;;;;;;;4.30;2.70;;;16.30;99.90;;;;;;5092914;28;20036;-71
2022/08/20 09:24:14;;;;;;;2.90;2.10;;;16.30;99.90;;;;;;5076747;28;20382;-72
2022/08/20 09:26:40;;;;;;;4.18;2.65;;;16.30;99.90;;;;;;5074906;28;20029;-71
2022/08/20 09:29:06;;;;;;;5.85;3.00;;;16.30;99.90;;;;;;5079232;28;20027;-72
2022/08/20 09:31:32;;;;;;;3.60;2.75;;;16.30;99.90;;;;;;5090411;28;20028;-73
2022/08/20 09:33:57;;;;;;;4.57;2.30;;;16.20;99.90;;;;;;5074026;28;20078;-73
2022/08/20 09:36:23;;;;;;;4.35;2.17;;;16.20;99.90;;;;;;5079114;28;20032;-72
2022/08/20 09:38:49;;;;;;;3.78;2.55;;;16.20;99.90;;;;;;5077472;28;20096;-72
2022/08/20 09:41:14;;;;;;;3.90;2.15;;;16.20;99.90;;;;;;5084497;28;20477;-72
2022/08/20 09:43:40;;;;;;;3.38;2.45;;;16.10;99.90;;;;;;5078919;28;20448;-71
2022/08/20 09:46:06;;;;;;;2.58;1.95;;;16.10;99.90;;;;;;5073775;28;20033;-72
2022/08/20 09:48:32;;;;;;;3.05;2.10;;;16.20;99.90;;;;;;5073772;28;20073;-72
2022/08/20 09:50:58;;;;;;;3.33;1.92;;;16.20;99.90;;;;;;5081619;28;20044;-72
2022/08/20 09:53:23;;;;;;;3.83;2.75;;;16.30;99.90;;;;;;5076753;28;20051;-72
2022/08/20 09:55:53;;;;;;;3.55;2.65;;;16.40;99.90;;;;;;5073839;28;20064;-71
2022/08/20 09:58:30;;;;;;;3.35;2.58;;;16.40;99.90;;;;;;5077019;28;20112;-71
2022/08/20 10:00:55;;;;;;;4.22;2.65;;;16.40;99.90;;;;;;5080209;28;20539;-70
2022/08/20 10:03:21;;;;;;;3.10;2.03;;;16.60;99.90;;;;;;5087967;28;20064;-71
2022/08/20 10:05:47;;;;;;;3.45;2.20;;;16.70;99.90;;;;;;5088271;28;20492;-70
2022/08/20 10:08:13;;;;;;;3.35;2.20;;;16.80;99.90;;;;;;5078474;28;20067;-71
2022/08/20 10:10:39;;;;;;;2.53;1.95;;;16.80;99.90;;;;;;5084993;28;20016;-70
2022/08/20 10:13:04;;;;;;;2.97;2.33;;;16.90;99.90;;;;;;5077574;28;20020;-70
2022/08/20 10:15:31;;;;;;;4.22;2.70;;;17.00;99.90;;;;;;5079708;28;20099;-70
2022/08/20 10:17:56;;;;;;;4.35;3.35;;;17.00;99.90;;;;;;5079272;28;20388;-70
2022/08/20 10:20:23;;;;;;;3.92;3.10;;;17.00;99.90;;;;;;5085148;28;20077;-70
2022/08/20 10:22:49;;;;;;;4.22;2.88;;;17.10;99.90;;;;;;5076639;28;20025;-70
2022/08/20 10:25:16;;;;;;;3.88;2.70;;;17.10;99.90;;;;;;5074822;28;20027;-70
2022/08/20 10:27:42;;;;;;;3.67;2.90;;;17.10;99.90;;;;;;5087121;28;20031;-70
2022/08/20 10:30:09;;;;;;;4.32;3.20;;;17.10;99.90;;;;;;5088386;28;20028;-70
2022/08/20 10:32:34;;;;;;;4.05;3.03;;;17.10;99.90;;;;;;5080971;28;20017;-70
2022/08/20 10:35:00;;;;;;;3.80;3.05;;;17.20;99.90;;;;;;5084347;28;20044;-70
2022/08/20 10:37:26;;;;;;;2.85;2.35;;;17.20;99.90;;;;;;5077078;28;20052;-70
2022/08/20 10:39:53;;;;;;;2.90;2.15;;;17.10;99.90;;;;;;5082762;28;20104;-70
2022/08/20 10:42:18;;;;;;;4.25;2.85;;;17.10;99.90;;;;;;5081849;28;20024;-70
2022/08/20 10:44:44;;;;;;;3.17;2.40;;;17.00;99.90;;;;;;5094539;28;20528;-71
2022/08/20 10:47:23;;;;;;;3.17;2.10;;;17.00;99.90;;;;;;5085856;28;20103;-71
2022/08/20 10:49:51;;;;;;;4.10;2.80;;;17.00;99.90;;;;;;5078677;28;20031;-72
2022/08/20 10:52:18;;;;;;;4.03;2.65;;;17.00;99.90;;;;;;5077923;28;20455;-71
2022/08/20 10:54:44;;;;;;;3.70;2.60;;;17.00;99.90;;;;;;5081107;28;20052;-71
2022/08/20 10:57:20;;;;;;;3.70;2.45;;;17.00;99.90;;;;;;5094856;28;20048;-71
2022/08/20 10:59:47;;;;;;;3.35;2.50;;;16.90;99.90;;;;;;5086186;28;20036;-71
2022/08/20 11:02:14;;;;;;;3.15;2.50;;;16.90;99.90;;;;;;5084154;28;20067;-71
2022/08/20 11:04:40;;;;;;;4.07;3.00;;;16.90;99.90;;;;;;5085086;28;20031;-71
2022/08/20 11:07:25;;;;;;;4.53;3.28;;;17.00;99.90;;;;;;5090341;28;20115;-71
2022/08/20 11:09:51;;;;;;;6.15;3.97;;;17.00;99.90;;;;;;5085568;28;20484;-71
2022/08/20 11:12:19;;;;;;;4.53;3.67;;;17.00;99.90;;;;;;5075570;28;20056;-71
2022/08/20 11:14:45;;;;;;;4.55;3.70;;;17.00;99.90;;;;;;5089368;28;20017;-70
2022/08/20 11:17:11;;;;;;;5.13;3.38;;;17.00;99.90;;;;;;5094470;28;20027;-70
2022/08/20 11:19:40;;;;;;;4.15;3.28;;;17.00;99.90;;;;;;5092151;28;20039;-71
2022/08/20 11:22:05;;;;;;;4.70;3.70;;;17.00;99.90;;;;;;5091931;28;20923;-70
2022/08/20 11:24:31;;;;;;;4.60;3.50;;;17.00;99.90;;;;;;5085333;28;20506;-70
2022/08/20 11:26:57;;;;;;;7.40;5.20;;;17.00;99.90;;;;;;5085147;28;20488;-70
2022/08/20 11:29:23;;;;;;;7.30;5.45;;;17.00;99.90;;;;;;5084298;28;20024;-70
2022/08/20 11:31:49;;;;;;;8.68;6.22;;;16.90;99.90;;;;;;5087349;28;20021;-70
2022/08/20 11:34:15;;;;;;;27.83;17.88;;;16.90;99.90;;;;;;5080101;28;20032;-71
2022/08/20 11:36:42;;;;;;;19.85;12.02;;;16.90;99.90;;;;;;5087870;28;20032;-71
2022/08/20 11:39:07;;;;;;;5.28;3.90;;;16.90;99.90;;;;;;5087668;28;20431;-71
2022/08/20 11:41:33;;;;;;;5.00;2.97;;;16.90;99.90;;;;;;5079269;28;20033;-71
2022/08/20 11:43:59;;;;;;;3.78;2.70;;;16.90;99.90;;;;;;5086980;28;20114;-70
2022/08/20 11:46:24;;;;;;;4.63;2.30;;;17.00;99.90;;;;;;5091002;28;20097;-70
2022/08/20 11:48:50;;;;;;;2.78;2.10;;;17.00;99.90;;;;;;5085509;28;20088;-70
2022/08/20 11:51:16;;;;;;;2.80;2.08;;;17.00;99.90;;;;;;5078377;28;20028;-70
2022/08/20 11:53:42;;;;;;;3.20;2.10;;;17.00;99.90;;;;;;5075983;28;20485;-70
2022/08/20 11:56:07;;;;;;;3.42;2.60;;;17.00;99.90;;;;;;5075917;28;20392;-70
2022/08/20 11:58:33;;;;;;;3.30;2.50;;;16.90;99.90;;;;;;5075859;28;20053;-70
2022/08/20 12:00:59;;;;;;;3.75;2.63;;;16.90;99.90;;;;;;5081794;28;20428;-72
2022/08/20 12:03:24;;;;;;;4.03;2.45;;;16.90;99.90;;;;;;5085233;28;20036;-70
2022/08/20 12:05:50;;;;;;;2.65;1.92;;;16.90;99.90;;;;;;5074406;28;20029;-70
2022/08/20 12:08:16;;;;;;;3.08;2.13;;;17.00;99.90;;;;;;5075547;28;20032;-70
2022/08/20 12:10:42;;;;;;;3.60;2.17;;;17.00;99.90;;;;;;5075345;28;20021;-70
2022/08/20 12:13:08;;;;;;;2.40;2.00;;;17.20;99.90;;;;;;5075624;28;20032;-70
2022/08/20 12:15:35;;;;;;;3.15;2.25;;;17.20;99.90;;;;;;5074036;28;20052;-70
2022/08/20 12:18:06;;;;;;;4.32;3.10;;;17.40;99.90;;;;;;5075300;28;20032;-70
2022/08/20 12:20:31;;;;;;;2.83;1.95;;;17.50;99.90;;;;;;5075308;28;20048;-70
2022/08/20 12:22:57;;;;;;;4.07;2.67;;;17.60;99.90;;;;;;5073836;28;20059;-70
2022/08/20 12:25:24;;;;;;;3.58;2.85;;;17.70;99.90;;;;;;5074015;28;20480;-70
2022/08/20 12:27:50;;;;;;;2.92;2.45;;;17.80;99.90;;;;;;5075252;28;20032;-70
2022/08/20 12:30:19;;;;;;;4.38;3.13;;;17.80;99.90;;;;;;5074989;28;20024;-70
2022/08/20 12:32:46;;;;;;;4.13;2.88;;;17.80;99.90;;;;;;5074906;28;20064;-70
2022/08/20 12:35:13;;;;;;;3.67;2.60;;;17.90;99.90;;;;;;5075191;28;20028;-70
2022/08/20 12:37:40;;;;;;;3.70;3.10;;;17.90;99.90;;;;;;5074826;28;20020;-70
2022/08/20 12:40:10;;;;;;;3.28;2.70;;;17.90;99.90;;;;;;5075141;28;20024;-70
2022/08/20 12:42:36;;;;;;;3.35;2.50;;;17.90;99.90;;;;;;5074793;28;20477;-70
2022/08/20 12:45:03;;;;;;;3.72;2.85;;;17.90;99.90;;;;;;5074708;28;20024;-70
2022/08/20 12:47:37;;;;;;;3.75;3.03;;;18.00;99.90;;;;;;5072280;28;20020;-70
2022/08/20 12:50:11;;;;;;;3.85;3.00;;;18.10;99.90;;;;;;5074933;28;20374;-70
2022/08/20 12:52:38;;;;;;;3.95;3.00;;;18.10;99.90;;;;;;5075065;28;20043;-70
2022/08/20 12:55:05;;;;;;;3.20;2.50;;;18.10;99.90;;;;;;5074814;28;20362;-70
2022/08/20 12:57:34;;;;;;;3.95;2.92;;;18.20;99.90;;;;;;5074389;28;20070;-71